Arden, Delaware
Current Conditions -  °F | °C
As of 4:51 AM on Friday 19 Dec 2014 (Local Time) from KILG Reporting Station
Overcast Overcast  
Wind Chill: -2°   Ceiling: 3400
Heat Index:   Visibility: 10mi
Dew Point: -4°   Wind: 12mph
Humidity: 64%   Direction: 280°W
Pressure: 30.06"   Gusts: NA
Location:  39.81°N, 75.49°W
Report Text: KILG 190851Z 28010KT 10SM OVC034 02/M04 A3006 RMK AO2 SLP181 T00221039 50003
Loading
Personal Weather Stations






























Interactive Weather Map New forecast layout! Learn more

10-Day Weather Forecast

Advertisements
Track Severe Weather on mobile